createdAt,value
2022-12-24T00:00:30.574Z,25.52
2022-12-24T00:03:16.278Z,39.25
2022-12-24T00:06:10.132Z,27.00
2022-12-24T00:08:55.763Z,29.83
2022-12-24T00:11:41.373Z,23.48
2022-12-24T00:14:26.779Z,35.60
2022-12-24T00:17:12.354Z,37.35
2022-12-24T00:19:58.113Z,34.25
2022-12-24T00:22:43.237Z,40.63
2022-12-24T00:25:28.727Z,38.92
2022-12-24T00:28:15.044Z,33.38
2022-12-24T00:31:00.826Z,30.92
2022-12-24T00:33:47.843Z,34.20
2022-12-24T00:36:33.099Z,35.47
2022-12-24T00:39:18.933Z,40.47
2022-12-24T00:42:04.414Z,33.53
2022-12-24T00:44:49.774Z,30.23
2022-12-24T00:47:35.460Z,32.15
2022-12-24T00:50:20.970Z,28.42
2022-12-24T00:53:06.430Z,33.70
2022-12-24T00:55:51.900Z,31.38
2022-12-24T00:58:37.394Z,38.22
2022-12-24T01:01:24.049Z,35.35
2022-12-24T01:04:35.205Z,26.92
2022-12-24T01:07:21.001Z,28.10
2022-12-24T01:10:07.681Z,32.40
2022-12-24T01:12:52.895Z,34.92
2022-12-24T01:15:38.179Z,30.60
2022-12-24T01:18:24.348Z,38.72
2022-12-24T01:21:09.812Z,31.98
2022-12-24T01:23:55.082Z,34.88
2022-12-24T01:26:40.809Z,26.80
2022-12-24T01:29:26.085Z,39.50
2022-12-24T01:32:11.668Z,30.50
2022-12-24T01:34:57.228Z,44.45
2022-12-24T01:37:42.946Z,35.90
2022-12-24T01:40:46.840Z,37.15
2022-12-24T01:43:33.656Z,39.65
2022-12-24T01:46:31.715Z,42.47
2022-12-24T01:49:18.297Z,30.42
2022-12-24T01:52:09.180Z,35.35
2022-12-24T01:55:00.275Z,35.63
2022-12-24T01:57:58.949Z,32.10
2022-12-24T02:00:44.920Z,27.60
2022-12-24T02:03:30.510Z,40.28
2022-12-24T02:06:18.775Z,38.40
2022-12-24T02:09:04.232Z,37.22
2022-12-24T02:11:49.827Z,34.40
2022-12-24T02:14:37.296Z,30.90
2022-12-24T02:17:56.562Z,39.25
2022-12-24T02:21:05.262Z,37.65
2022-12-24T02:24:32.134Z,43.10
2022-12-24T02:27:38.604Z,43.78
2022-12-24T02:30:34.668Z,37.65
2022-12-24T02:33:31.193Z,41.58
2022-12-24T02:36:47.087Z,32.67
2022-12-24T02:39:53.870Z,31.92
2022-12-24T02:42:42.984Z,35.63
2022-12-24T02:45:32.069Z,41.30
2022-12-24T02:48:18.385Z,37.40
2022-12-24T02:51:09.419Z,33.65
2022-12-24T02:53:54.697Z,35.00
2022-12-24T02:56:53.593Z,37.78
2022-12-24T03:00:00.655Z,42.47
2022-12-24T03:02:53.225Z,31.77
2022-12-24T03:06:43.896Z,40.92
2022-12-24T03:09:55.846Z,34.92
2022-12-24T03:13:12.921Z,41.25
2022-12-24T03:15:58.957Z,34.28
2022-12-24T03:18:47.944Z,32.72
2022-12-24T03:21:35.852Z,32.72
2022-12-24T03:24:21.296Z,41.15
2022-12-24T03:27:08.955Z,35.05
2022-12-24T03:29:54.969Z,36.80
2022-12-24T03:32:40.669Z,40.00
2022-12-24T03:35:26.162Z,42.15
2022-12-24T03:38:11.476Z,32.67
2022-12-24T03:40:56.949Z,42.78
2022-12-24T03:43:42.679Z,31.95
2022-12-24T03:46:28.722Z,30.30
2022-12-24T03:49:13.926Z,41.58
2022-12-24T03:51:59.887Z,33.63
2022-12-24T03:54:45.288Z,42.35
2022-12-24T03:57:30.797Z,28.58
2022-12-24T04:00:17.257Z,28.02
2022-12-24T04:03:02.656Z,36.65
2022-12-24T04:05:47.949Z,45.97
2022-12-24T04:08:33.948Z,36.55
2022-12-24T04:11:19.318Z,39.20
2022-12-24T04:14:04.765Z,24.27
2022-12-24T04:16:50.101Z,35.55
2022-12-24T04:19:36.367Z,32.53
2022-12-24T04:22:21.841Z,40.38
2022-12-24T04:25:07.879Z,31.27
2022-12-24T04:27:53.304Z,28.63
2022-12-24T04:30:39.683Z,28.83
2022-12-24T04:33:25.248Z,23.25
2022-12-24T04:36:14.303Z,26.70
2022-12-24T04:38:59.803Z,53.40
2022-12-24T04:41:45.197Z,31.75
2022-12-24T04:44:30.661Z,27.65
2022-12-24T04:47:16.473Z,22.67
2022-12-24T04:50:02.352Z,25.30
2022-12-24T04:52:47.769Z,22.38
2022-12-24T04:55:33.302Z,30.83
2022-12-24T04:58:18.660Z,21.73
2022-12-24T05:01:05.572Z,24.13
2022-12-24T05:03:51.706Z,28.27
2022-12-24T05:06:37.265Z,31.83
2022-12-24T05:09:22.888Z,29.02
2022-12-24T05:12:08.439Z,27.27
2022-12-24T05:14:53.772Z,25.95
2022-12-24T05:17:39.267Z,20.13
2022-12-24T05:20:24.973Z,21.60
2022-12-24T05:23:38.007Z,28.88
2022-12-24T05:26:37.445Z,21.15
2022-12-24T05:29:23.097Z,24.80
2022-12-24T05:32:08.543Z,29.38
2022-12-24T05:34:53.771Z,21.25
2022-12-24T05:37:39.212Z,26.45
2022-12-24T05:40:24.859Z,21.45
2022-12-24T05:43:10.088Z,24.55
2022-12-24T05:46:03.539Z,26.30
2022-12-24T05:48:50.993Z,28.33
2022-12-24T05:51:36.546Z,23.40
2022-12-24T05:54:21.959Z,32.40
2022-12-24T05:57:08.175Z,22.88
2022-12-24T05:59:53.339Z,36.88
2022-12-24T06:02:39.005Z,28.23
2022-12-24T06:05:24.506Z,21.55
2022-12-24T06:08:10.197Z,23.05
2022-12-24T06:11:00.865Z,26.27
2022-12-24T06:13:46.158Z,27.70
2022-12-24T06:16:31.503Z,22.08
2022-12-24T06:19:16.928Z,25.75
2022-12-24T06:22:02.605Z,26.33
2022-12-24T06:24:48.183Z,30.20
2022-12-24T06:27:33.801Z,24.83
2022-12-24T06:30:19.184Z,26.50
2022-12-24T06:33:04.815Z,24.00
2022-12-24T06:35:50.305Z,24.85
2022-12-24T06:38:35.754Z,36.05
2022-12-24T06:41:21.987Z,24.73
2022-12-24T06:44:08.627Z,27.02
2022-12-24T06:46:53.939Z,27.35
2022-12-24T06:49:39.393Z,29.52
2022-12-24T06:52:25.312Z,32.15
2022-12-24T06:55:11.017Z,29.35
2022-12-24T06:57:56.606Z,33.70
2022-12-24T07:00:42.223Z,26.92
2022-12-24T07:03:27.826Z,29.83
2022-12-24T07:06:20.588Z,25.88
2022-12-24T07:09:10.228Z,34.50
2022-12-24T07:11:55.625Z,27.10
2022-12-24T07:14:41.013Z,27.75
2022-12-24T07:17:26.638Z,27.55
2022-12-24T07:20:16.202Z,25.70
2022-12-24T07:23:02.002Z,24.02
2022-12-24T07:25:47.791Z,33.83
2022-12-24T07:28:33.531Z,29.58
2022-12-24T07:31:19.049Z,33.03
2022-12-24T07:34:04.585Z,24.08
2022-12-24T07:36:50.244Z,25.17
2022-12-24T07:39:35.986Z,25.80
2022-12-24T07:42:21.586Z,33.67
2022-12-24T07:45:08.001Z,28.13
2022-12-24T07:47:53.397Z,36.33
2022-12-24T07:50:39.123Z,30.67
2022-12-24T07:53:26.771Z,27.80
2022-12-24T07:56:13.211Z,32.83
2022-12-24T07:58:58.842Z,32.20
2022-12-24T08:01:45.697Z,31.83
2022-12-24T08:04:36.459Z,33.90
2022-12-24T08:07:22.105Z,33.25
2022-12-24T08:10:08.106Z,32.70
2022-12-24T08:12:53.708Z,41.05
2022-12-24T08:15:39.224Z,33.45
2022-12-24T08:18:25.013Z,33.42
2022-12-24T08:21:10.438Z,29.05
2022-12-24T08:23:55.686Z,31.08
2022-12-24T08:26:41.251Z,30.45
2022-12-24T08:29:26.606Z,35.25
2022-12-24T08:32:12.273Z,37.53
2022-12-24T08:34:57.839Z,35.17
2022-12-24T08:37:43.343Z,36.63
2022-12-24T08:40:29.003Z,37.22
2022-12-24T08:43:14.997Z,33.65
2022-12-24T08:46:05.513Z,35.78
2022-12-24T08:48:51.059Z,35.60
2022-12-24T08:51:36.489Z,33.47
2022-12-24T08:54:23.654Z,33.30
2022-12-24T08:57:09.009Z,38.42
2022-12-24T08:59:54.654Z,39.15
2022-12-24T09:02:40.536Z,29.67
2022-12-24T09:05:26.413Z,39.13
2022-12-24T09:08:12.102Z,36.72
2022-12-24T09:11:07.584Z,30.40
2022-12-24T09:13:54.157Z,29.35
2022-12-24T09:16:40.034Z,29.92
2022-12-24T09:19:25.603Z,37.75
2022-12-24T09:22:10.948Z,23.10
2022-12-24T09:24:56.687Z,30.77
2022-12-24T09:27:42.175Z,33.58
2022-12-24T09:30:28.593Z,32.08
2022-12-24T09:33:14.014Z,28.67
2022-12-24T09:36:00.742Z,23.27
2022-12-24T09:38:46.911Z,28.95
2022-12-24T09:42:10.020Z,26.58
2022-12-24T09:45:02.534Z,34.70
2022-12-24T09:47:54.349Z,21.00
2022-12-24T09:50:51.775Z,29.90
2022-12-24T09:54:00.752Z,29.23
2022-12-24T09:56:48.104Z,23.45
2022-12-24T09:59:43.244Z,23.60
2022-12-24T10:02:28.631Z,18.48
2022-12-24T10:05:23.456Z,26.60
2022-12-24T10:08:17.985Z,28.17
2022-12-24T10:11:15.180Z,24.92
2022-12-24T10:14:10.848Z,24.45
2022-12-24T10:17:15.886Z,26.25
2022-12-24T10:20:33.799Z,22.17
2022-12-24T10:23:46.195Z,20.75
2022-12-24T10:26:39.850Z,27.33
2022-12-24T10:29:30.794Z,28.52
2022-12-24T10:32:30.014Z,26.30
2022-12-24T10:35:15.037Z,22.88
2022-12-24T10:38:00.962Z,26.92
2022-12-24T10:40:50.288Z,27.98
2022-12-24T10:43:38.364Z,19.73
2022-12-24T10:46:33.010Z,19.85
2022-12-24T10:49:27.216Z,23.67
2022-12-24T10:52:20.126Z,24.25
2022-12-24T10:55:11.692Z,24.83
2022-12-24T10:58:04.838Z,19.17
2022-12-24T11:00:52.200Z,25.25
2022-12-24T11:03:38.442Z,32.70
2022-12-24T11:06:23.966Z,24.05
2022-12-24T11:09:30.507Z,25.00
2022-12-24T11:12:25.236Z,18.58
2022-12-24T11:15:30.582Z,19.77
2022-12-24T11:18:16.562Z,26.40
2022-12-24T11:21:03.452Z,21.00
2022-12-24T11:23:57.762Z,23.27
2022-12-24T11:26:44.644Z,26.52
2022-12-24T11:29:29.830Z,22.92
2022-12-24T11:32:21.158Z,30.45
2022-12-24T11:35:16.179Z,28.25
2022-12-24T11:38:01.356Z,27.85
2022-12-24T11:40:50.887Z,28.48
2022-12-24T11:43:47.315Z,26.65
2022-12-24T11:46:42.022Z,30.48
2022-12-24T11:49:30.716Z,26.52
2022-12-24T11:52:25.082Z,31.52
2022-12-24T11:55:17.078Z,29.48
2022-12-24T11:58:22.290Z,30.90
2022-12-24T12:01:40.125Z,34.83
2022-12-24T12:04:29.203Z,29.73
2022-12-24T12:07:29.024Z,31.77
2022-12-24T12:10:31.769Z,38.42
2022-12-24T12:13:23.319Z,36.33
2022-12-24T12:16:23.999Z,28.10
2022-12-24T12:19:15.026Z,31.70
2022-12-24T12:22:05.150Z,37.88
2022-12-24T12:24:53.724Z,25.20
2022-12-24T12:27:44.315Z,23.92
2022-12-24T12:30:31.889Z,33.10
2022-12-24T12:33:17.505Z,30.02
2022-12-24T12:36:05.156Z,28.05
2022-12-24T12:38:51.563Z,31.08
2022-12-24T12:41:54.959Z,24.00
2022-12-24T12:44:49.177Z,30.40
2022-12-24T12:47:40.657Z,23.70
2022-12-24T12:50:33.583Z,21.67
2022-12-24T12:53:37.706Z,42.03
2022-12-24T12:56:30.282Z,23.20
2022-12-24T12:59:19.246Z,26.60
2022-12-24T13:02:25.224Z,29.60
2022-12-24T13:05:23.236Z,28.80
2022-12-24T13:08:13.241Z,38.63
2022-12-24T13:11:16.820Z,32.60
2022-12-24T13:14:08.262Z,26.42
2022-12-24T13:17:12.681Z,30.13
2022-12-24T13:20:18.295Z,37.35
2022-12-24T13:23:18.056Z,33.05
2022-12-24T13:26:12.091Z,27.15
2022-12-24T13:29:35.258Z,34.70
2022-12-24T13:32:20.908Z,29.00
2022-12-24T13:35:18.730Z,26.48
2022-12-24T13:38:29.552Z,28.55
2022-12-24T13:41:40.461Z,42.58
2022-12-24T13:44:32.939Z,33.42
2022-12-24T13:47:30.206Z,28.70
2022-12-24T13:50:24.429Z,31.55
2022-12-24T13:53:26.634Z,33.25
2022-12-24T13:56:17.824Z,31.15
2022-12-24T13:59:36.161Z,31.40
2022-12-24T14:02:24.520Z,27.70
2022-12-24T14:05:28.081Z,34.15
2022-12-24T14:08:28.351Z,27.75
2022-12-24T14:11:25.644Z,36.97
2022-12-24T14:14:26.886Z,31.60
2022-12-24T14:17:31.196Z,41.13
2022-12-24T14:20:17.013Z,32.78
2022-12-24T14:23:05.884Z,27.05
2022-12-24T14:25:52.274Z,29.75
2022-12-24T14:29:21.255Z,37.63
2022-12-24T14:32:15.780Z,28.80
2022-12-24T14:35:13.188Z,30.02
2022-12-24T14:38:00.471Z,32.33
2022-12-24T14:41:14.065Z,32.85
2022-12-24T14:44:14.147Z,35.72
2022-12-24T14:47:44.808Z,32.03
2022-12-24T14:50:55.566Z,37.47
2022-12-24T14:53:59.062Z,33.83
2022-12-24T14:59:29.656Z,32.22
2022-12-24T15:02:40.432Z,41.78
2022-12-24T15:05:29.594Z,33.90
2022-12-24T15:08:23.661Z,29.88
2022-12-24T15:14:00.564Z,35.60
2022-12-24T15:16:58.127Z,31.55
2022-12-24T15:19:47.263Z,44.17
2022-12-24T15:22:32.786Z,34.95
2022-12-24T15:25:38.789Z,39.28
2022-12-24T15:28:24.430Z,36.47
2022-12-24T15:31:16.660Z,44.97
2022-12-24T15:34:02.486Z,34.03
2022-12-24T15:36:48.123Z,30.52
2022-12-24T15:39:34.551Z,32.15
2022-12-24T15:42:22.586Z,34.40
2022-12-24T15:45:43.061Z,32.25
2022-12-24T15:48:31.448Z,37.97
2022-12-24T15:51:34.964Z,33.53
2022-12-24T15:54:25.268Z,37.30
2022-12-24T15:57:34.765Z,33.40
2022-12-24T16:00:33.229Z,29.27
2022-12-24T16:03:20.746Z,32.85
2022-12-24T16:06:08.812Z,23.48
2022-12-24T16:08:56.347Z,35.35
2022-12-24T16:11:41.972Z,35.97
2022-12-24T16:14:28.127Z,42.20
2022-12-24T16:17:23.468Z,32.47
2022-12-24T16:20:20.378Z,33.67
2022-12-24T16:23:07.076Z,35.00
2022-12-24T16:25:53.363Z,33.47
2022-12-24T16:28:39.041Z,49.58
2022-12-24T16:31:59.023Z,32.83
2022-12-24T16:34:44.591Z,31.55
2022-12-24T16:37:30.295Z,39.15
2022-12-24T16:40:20.626Z,29.35
2022-12-24T16:43:28.994Z,36.72
2022-12-24T16:46:14.553Z,38.70
2022-12-24T16:49:00.796Z,40.80
2022-12-24T16:51:47.096Z,37.58
2022-12-24T16:54:34.133Z,43.58
2022-12-24T16:57:19.670Z,43.83
2022-12-24T17:00:18.176Z,40.80
2022-12-24T17:03:04.869Z,35.08
2022-12-24T17:05:50.250Z,34.42
2022-12-24T17:08:36.463Z,40.38
2022-12-24T17:11:24.068Z,36.30
2022-12-24T17:14:19.868Z,38.00
2022-12-24T17:17:06.093Z,29.42
2022-12-24T17:19:51.847Z,47.10
2022-12-24T17:22:37.598Z,36.97
2022-12-24T17:25:23.140Z,35.17
2022-12-24T17:28:08.612Z,38.90
2022-12-24T17:30:54.300Z,32.60
2022-12-24T17:33:40.204Z,39.22
2022-12-24T17:36:26.031Z,40.00
2022-12-24T17:39:11.709Z,31.15
2022-12-24T17:41:57.395Z,45.17
2022-12-24T17:44:42.975Z,28.58
2022-12-24T17:47:28.378Z,34.28
2022-12-24T17:50:14.037Z,36.63
2022-12-24T17:52:59.332Z,30.63
2022-12-24T17:55:45.155Z,33.90
2022-12-24T17:58:31.470Z,23.83
2022-12-24T18:01:20.782Z,20.20
2022-12-24T18:04:07.224Z,30.02
2022-12-24T18:07:01.483Z,34.00
2022-12-24T18:09:48.072Z,32.67
2022-12-24T18:12:33.942Z,32.53
2022-12-24T18:15:20.291Z,37.80
2022-12-24T18:18:07.371Z,35.83
2022-12-24T18:20:52.749Z,29.17
2022-12-24T18:23:40.960Z,23.73
2022-12-24T18:26:28.914Z,22.00
2022-12-24T18:29:15.210Z,27.08
2022-12-24T18:32:00.585Z,21.73
2022-12-24T18:34:46.406Z,21.63
2022-12-24T18:37:31.989Z,26.35
2022-12-24T18:40:18.112Z,28.00
2022-12-24T18:43:03.804Z,21.10
2022-12-24T18:45:49.245Z,22.70
2022-12-24T18:48:35.376Z,25.55
2022-12-24T18:51:22.727Z,22.48
2022-12-24T18:54:08.599Z,20.20
2022-12-24T18:56:53.992Z,27.13
2022-12-24T18:59:39.496Z,23.55
2022-12-24T19:02:25.102Z,29.35
2022-12-24T19:05:10.581Z,24.33
2022-12-24T19:07:56.550Z,22.13
2022-12-24T19:10:42.870Z,16.27
2022-12-24T19:13:28.221Z,20.58
2022-12-24T19:16:15.195Z,18.52
2022-12-24T19:19:02.167Z,22.25
2022-12-24T19:21:47.758Z,18.67
2022-12-24T19:24:33.321Z,17.42
2022-12-24T19:27:19.082Z,15.15
2022-12-24T19:30:05.721Z,16.95
2022-12-24T19:32:51.753Z,14.77
2022-12-24T19:35:37.428Z,24.20
2022-12-24T19:38:22.936Z,18.60
2022-12-24T19:41:14.168Z,12.73
2022-12-24T19:44:01.834Z,14.88
2022-12-24T19:46:47.443Z,13.95
2022-12-24T19:49:33.109Z,13.43
2022-12-24T19:52:18.766Z,28.08
2022-12-24T19:55:04.751Z,15.20
2022-12-24T19:57:52.599Z,30.33
2022-12-24T20:00:38.207Z,14.07
2022-12-24T20:03:23.830Z,12.98
2022-12-24T20:06:09.318Z,14.02
2022-12-24T20:09:00.023Z,17.67
2022-12-24T20:11:45.547Z,14.48
2022-12-24T20:14:31.128Z,10.60
2022-12-24T20:17:16.667Z,19.13
2022-12-24T20:20:02.162Z,11.60
2022-12-24T20:22:48.423Z,12.63
2022-12-24T20:25:35.416Z,7.75
2022-12-24T20:28:20.698Z,16.15
2022-12-24T20:31:17.754Z,11.15
2022-12-24T20:34:05.288Z,15.23
2022-12-24T20:36:50.863Z,17.42
2022-12-24T20:39:36.479Z,8.23
2022-12-24T20:42:22.189Z,10.30
2022-12-24T20:45:07.786Z,13.10
2022-12-24T20:47:53.464Z,13.80
2022-12-24T20:50:41.158Z,13.38
2022-12-24T20:53:27.209Z,7.65
2022-12-24T20:56:14.061Z,11.50
2022-12-24T20:59:01.119Z,11.85
2022-12-24T21:01:47.336Z,10.93
2022-12-24T21:04:32.905Z,11.90
2022-12-24T21:07:18.694Z,13.55
2022-12-24T21:10:05.208Z,18.40
2022-12-24T21:12:52.151Z,10.82
2022-12-24T21:15:42.323Z,15.48
2022-12-24T21:18:27.956Z,12.88
2022-12-24T21:21:13.646Z,13.35
2022-12-24T21:23:58.948Z,13.93
2022-12-24T21:26:44.800Z,10.93
2022-12-24T21:29:31.197Z,17.70
2022-12-24T21:32:16.692Z,10.57
2022-12-24T21:35:02.456Z,13.38
2022-12-24T21:37:48.387Z,7.82
2022-12-24T21:40:33.989Z,7.88
2022-12-24T21:43:20.045Z,8.73
2022-12-24T21:46:15.507Z,8.60
2022-12-24T21:49:19.521Z,9.07
2022-12-24T21:52:05.184Z,10.27
2022-12-24T21:54:50.837Z,9.82
2022-12-24T21:57:54.063Z,8.68
2022-12-24T22:00:40.016Z,9.50
2022-12-24T22:03:25.660Z,7.28
2022-12-24T22:06:31.440Z,10.05
2022-12-24T22:09:35.200Z,13.27
2022-12-24T22:12:20.837Z,13.50
2022-12-24T22:15:07.385Z,10.55
2022-12-24T22:17:53.163Z,7.55
2022-12-24T22:20:39.976Z,9.35
2022-12-24T22:23:25.337Z,13.57
2022-12-24T22:26:15.551Z,8.75
2022-12-24T22:29:00.685Z,9.25
2022-12-24T22:31:46.825Z,10.32
2022-12-24T22:34:32.910Z,10.63
2022-12-24T22:37:18.422Z,8.52
2022-12-24T22:40:04.034Z,14.65
2022-12-24T22:42:49.118Z,16.42
2022-12-24T22:45:34.568Z,7.45
2022-12-24T22:48:20.040Z,14.90
2022-12-24T22:51:10.674Z,8.95
2022-12-24T22:53:56.888Z,9.60
2022-12-24T22:56:42.505Z,7.95
2022-12-24T22:59:27.963Z,9.00
2022-12-24T23:02:14.118Z,11.02
2022-12-24T23:04:59.424Z,11.90
2022-12-24T23:07:45.444Z,15.18
2022-12-24T23:10:31.534Z,8.25
2022-12-24T23:13:36.521Z,10.32
2022-12-24T23:19:07.248Z,10.00
2022-12-24T23:21:52.637Z,13.95
2022-12-24T23:24:41.578Z,13.25
2022-12-24T23:27:27.569Z,13.43
2022-12-24T23:30:13.122Z,10.10
2022-12-24T23:32:58.983Z,7.50
2022-12-24T23:35:44.699Z,12.80
2022-12-24T23:38:30.244Z,9.55
2022-12-24T23:41:18.788Z,18.45
2022-12-24T23:44:04.466Z,6.53
2022-12-24T23:46:49.798Z,8.45
2022-12-24T23:49:36.381Z,10.23
2022-12-24T23:52:22.719Z,9.93
2022-12-24T23:55:08.188Z,15.20
2022-12-24T23:57:54.176Z,7.45
